Temporada 2025 · Etapa 3

Japanese Grand Prix

2025-04-06 · Suzuka Circuito · Japan · Japanese Grand Prix · 53Lap · 307.471km
Red Bull 1:22:06.983
McLaren +1.423
Vitória de equipa 33pt P2 · P3 2-3
McLaren +2.129
Volta mais rápida
1:30.965 · L50
Abandono
0
todos classificados · 20 partidas
Clima
14°/21°
média ar/pista · seco · humidade 76%
Safety car
0
Acionamentos de SC/VSC
Uso de pneus Direção de prova
Storylines · This Grand Prix & circuit
Mais vitórias neste GP
Michael Schumacher 6 vitórias
Lewis Hamilton ativo 5 vitórias
Sebastian Vettel 4 vitórias
Conversão pole-vitória 20/36 55.6%
Most SC/VSC · all-time P14
Chegada mais apertada · all-time P27
Most lead changes · all-time P1
Circuito Info
Suzuka Circuito Suzuka, Japan
53Lap 307.471km 36 corridas held (1987–) Recorde de volta 1:30.965 · Andrea Kimi Antonelli (2025)
Recordes Watch · Active drivers ranked at this Grand Prix
Corrida Trace · position by lap
largada parada SG 1 5 9 13 17 21 25 29 33 37 41 45 49 53 Verstappen · parada nos boxes L21 Verstappen VER Verstappen VER Norris · parada nos boxes L21 Norris NOR Norris NOR Piastri · parada nos boxes L20 Piastri PIA Piastri PIA Leclerc · parada nos boxes L21 Leclerc LEC Leclerc LEC Russell · parada nos boxes L19 Russell RUS Russell RUS Antonelli · parada nos boxes L31 Antonelli ANT Antonelli ANT Hamilton · parada nos boxes L30 Hamilton HAM Hamilton HAM Hadjar · parada nos boxes L25 Hadjar HAD Hadjar HAD Albon · parada nos boxes L24 Albon ALB Albon ALB Bearman · parada nos boxes L23 Bearman BEA Bearman BEA Alonso · parada nos boxes L24 Alonso ALO Alonso ALO Tsunoda · parada nos boxes L23 Tsunoda TSU Tsunoda TSU Gasly · parada nos boxes L24 Gasly GAS Gasly GAS Sainz · parada nos boxes L33 Sainz SAI Sainz SAI Doohan · parada nos boxes L15 Doohan DOO Doohan DOO Hülkenberg · parada nos boxes L22 Hülkenberg HUL Hülkenberg HUL Lawson · parada nos boxes L33 Lawson LAW Lawson LAW Ocon · parada nos boxes L32 Ocon OCO Ocon OCO Bortoleto · parada nos boxes L31 Bortoleto BOR Bortoleto BOR Stroll · parada nos boxes L9 Stroll · parada nos boxes L30 Stroll STR Stroll STR
parada nos boxes punição cumprida nos boxes SG Grelha de partida carro parado posição em cada volta (desde 1996)
PosPilotoTeamGrelhaVoltaTempo / StatusPontos
1 1 Max Verstappen Red Bull 1 53 1:22:06.983 25
2 4 Lando Norris McLaren 2 53 +1.423 18
3 81 Oscar Piastri McLaren 3 53 +2.129 15
4 16 Charles Leclerc Ferrari 4 53 +16.097 12
5 63 George Russell Mercedes 5 53 +17.362 10
6 12 Andrea Kimi Antonelli FL Mercedes 6 53 +18.671 8
7 44 Lewis Hamilton Ferrari 8 53 +29.182 6
8 6 Isack Hadjar RB F1 Team 7 53 +37.134 4
9 23 Alexander Albon Williams 9 53 +40.367 2
10 87 Oliver Bearman Haas F1 Team 10 53 +54.529 1
11 14 Fernando Alonso Aston Martin 12 53 +57.333
12 22 Yuki Tsunoda Red Bull 14 53 +58.401
13 10 Pierre Gasly Alpine F1 Team 11 53 +1:02.122
14 55 Carlos Sainz Williams 15 53 +1:14.129
15 7 Jack Doohan Alpine F1 Team 19 53 +1:21.314
16 27 Nico Hülkenberg Sauber 16 53 +1:21.957
17 30 Liam Lawson RB F1 Team 13 53 +1:22.734
18 31 Esteban Ocon Haas F1 Team 18 53 +1:23.438
19 5 Gabriel Bortoleto Sauber 17 53 +1:23.897
20 18 Lance Stroll Aston Martin 20 52 +12.929
PosPilotoTeamQ1Q2Q3Diferença para a pole
1 1 Max Verstappen Red Bull 1:27.943 1:27.502 1:26.983 POLE Q3
2 4 Lando Norris McLaren 1:27.845 1:27.146 1:26.995 +0.012 Q3
3 81 Oscar Piastri McLaren 1:27.687 1:27.507 1:27.027 +0.044 Q3
4 16 Charles Leclerc Ferrari 1:27.920 1:27.555 1:27.299 +0.316 Q3
5 63 George Russell Mercedes 1:27.843 1:27.400 1:27.318 +0.335 Q3
6 12 Andrea Kimi Antonelli Mercedes 1:27.968 1:27.639 1:27.555 +0.572 Q3
7 6 Isack Hadjar RB F1 Team 1:28.278 1:27.775 1:27.569 +0.586 Q3
8 44 Lewis Hamilton Ferrari 1:27.942 1:27.610 1:27.610 +0.627 Q3
9 23 Alexander Albon Williams 1:28.218 1:27.783 1:27.615 +0.632 Q3
10 87 Oliver Bearman Haas F1 Team 1:28.228 1:27.711 1:27.867 +0.728 Q2
11 10 Pierre Gasly Alpine F1 Team 1:28.186 1:27.822 +0.839 Q2
12 55 Carlos Sainz Williams 1:28.209 1:27.836 +0.853 Q2
13 14 Fernando Alonso Aston Martin 1:28.337 1:27.897 +0.914 Q2
14 30 Liam Lawson RB F1 Team 1:28.554 1:27.906 +0.923 Q2
15 22 Yuki Tsunoda Red Bull 1:27.967 1:28.000 +0.984 Q1
16 27 Nico Hülkenberg Sauber 1:28.570 +1.587 Q1
17 5 Gabriel Bortoleto Sauber 1:28.622 +1.639 Q1
18 31 Esteban Ocon Haas F1 Team 1:28.696 +1.713 Q1
19 7 Jack Doohan Alpine F1 Team 1:28.877 +1.894 Q1
20 18 Lance Stroll Aston Martin 1:29.271 +2.288 Q1
Grelha de partida
Oficial
11
12
14 Fernando Alonso ▲1
13
30 Liam Lawson ▲1
14
22 Yuki Tsunoda ▲1
15
55 Carlos Sainz ▼3
Pit Lane Speeding · Impeding of Car 44 · Late attendance of National Anthem
18
20
Final grid as classificado, including any saída dos boxes largadas. Source: Jolpica-F1. The arrow compares the grid slot with the a qualificação classification; hover a drop to see the stewards document behind it.
Sem dados desta sessão.
PosPilotoMelhor voltaDiferençaVoltas
1 4 Lando Norris 1:28.549 24
2 63 George Russell 1:28.712 +0.163 29
3 16 Charles Leclerc 1:28.965 +0.416 27
4 44 Lewis Hamilton 1:29.051 +0.502 25
5 1 Max Verstappen 1:29.065 +0.516 23
6 22 Yuki Tsunoda 1:29.172 +0.623 25
7 14 Fernando Alonso 1:29.222 +0.673 25
8 6 Isack Hadjar 1:29.225 +0.676 28
9 12 Andrea Kimi Antonelli 1:29.284 +0.735 28
10 55 Carlos Sainz 1:29.333 +0.784 28
11 23 Alexander Albon 1:29.392 +0.843 25
12 30 Liam Lawson 1:29.536 +0.987 28
13 10 Pierre Gasly 1:29.547 +0.998 23
14 81 Oscar Piastri 1:29.708 +1.159 25
15 18 Lance Stroll 1:29.758 +1.209 25
16 27 Nico Hülkenberg 1:30.023 +1.474 21
17 87 Oliver Bearman 1:30.077 +1.528 17
18 31 Esteban Ocon 1:30.123 +1.574 21
19 5 Gabriel Bortoleto 1:30.147 +1.598 26
Classified by best lap · source OpenF1 (2023+)
PosPilotoMelhor voltaDiferençaVoltas
1 81 Oscar Piastri 1:28.114 13
2 4 Lando Norris 1:28.163 +0.049 12
3 6 Isack Hadjar 1:28.518 +0.404 12
4 44 Lewis Hamilton 1:28.544 +0.430 14
5 30 Liam Lawson 1:28.559 +0.445 13
6 63 George Russell 1:28.567 +0.453 13
7 16 Charles Leclerc 1:28.586 +0.472 14
8 1 Max Verstappen 1:28.670 +0.556 9
9 10 Pierre Gasly 1:28.757 +0.643 13
10 55 Carlos Sainz 1:28.832 +0.718 9
11 23 Alexander Albon 1:29.023 +0.909 11
12 27 Nico Hülkenberg 1:29.062 +0.948 12
13 5 Gabriel Bortoleto 1:29.335 +1.221 13
14 31 Esteban Ocon 1:29.507 +1.393 13
15 87 Oliver Bearman 1:29.654 +1.540 10
16 12 Andrea Kimi Antonelli 1:29.733 +1.619 13
17 14 Fernando Alonso 1:29.978 +1.864 5
18 22 Yuki Tsunoda 1:30.625 +2.511 12
19 18 Lance Stroll 1:30.845 +2.731 12
20 7 Jack Doohan 1:31.659 +3.545 4
Classified by best lap · source OpenF1 (2023+)
PosPilotoMelhor voltaDiferençaVoltas
1 4 Lando Norris 1:27.965 17
2 81 Oscar Piastri 1:27.991 +0.026 17
3 63 George Russell 1:28.077 +0.112 15
4 16 Charles Leclerc 1:28.414 +0.449 13
5 1 Max Verstappen 1:28.497 +0.532 21
6 44 Lewis Hamilton 1:28.524 +0.559 13
7 23 Alexander Albon 1:28.554 +0.589 19
8 10 Pierre Gasly 1:28.603 +0.638 15
9 22 Yuki Tsunoda 1:28.785 +0.820 15
10 6 Isack Hadjar 1:28.786 +0.821 16
11 55 Carlos Sainz 1:28.846 +0.881 22
12 30 Liam Lawson 1:29.104 +1.139 19
13 12 Andrea Kimi Antonelli 1:29.126 +1.161 20
14 7 Jack Doohan 1:29.767 +1.802 15
15 14 Fernando Alonso 1:29.772 +1.807 17
16 87 Oliver Bearman 1:30.084 +2.119 17
17 5 Gabriel Bortoleto 1:30.134 +2.169 13
18 31 Esteban Ocon 1:30.183 +2.218 17
19 18 Lance Stroll 1:30.267 +2.302 16
20 27 Nico Hülkenberg 1:30.621 +2.656 17
Classified by best lap · source OpenF1 (2023+)
#PilotoTempo de voltaVolta
1 12 Andrea Kimi Antonelli 1:30.965 L50
2 81 Oscar Piastri 1:31.039 L53
3 1 Max Verstappen 1:31.041 L52
4 12 Andrea Kimi Antonelli 1:31.053 L51
5 12 Andrea Kimi Antonelli 1:31.058 L52
6 12 Andrea Kimi Antonelli 1:31.072 L46
7 55 Carlos Sainz 1:31.106 L36
8 81 Oscar Piastri 1:31.109 L48
9 4 Lando Norris 1:31.116 L51
10 23 Alexander Albon 1:31.125 L52
Top 10 mais rápida race voltas — #1 is the mais rápida lap of a corrida(FL).
Pit stops · como se comparam
23s 24s 25s 26s mediana 23.5s Lewis Hamilton · L30 · 22.937s Oscar Piastri · L20 · 23.037s Alexander Albon · L24 · 23.093s George Russell · L19 · 23.184s Lando Norris · L21 · 23.222s Isack Hadjar · L25 · 23.333s Carlos Sainz · L33 · 23.337s Charles Leclerc · L21 · 23.346s Jack Doohan · L15 · 23.382s Gabriel Bortoleto · L31 · 23.419s Nico Hülkenberg · L22 · 23.515s Lance Stroll · L30 · 23.608s Liam Lawson · L33 · 23.662s Lance Stroll · L9 · 23.724s Yuki Tsunoda · L23 · 24.181s Andrea Kimi Antonelli · L31 · 24.380s Max Verstappen · L21 · 24.397s Esteban Ocon · L32 · 24.464s Oliver Bearman · L23 · 24.834s Fernando Alonso · L24 · 25.708s Pierre Gasly · L24 · 26.041s
mais rápida 22.937s Lewis Hamilton mais lenta 26.041s Pierre Gasly tempo de passagem pelos boxes — um ponto por paragem
PilotoParagemVoltaTempoPassagem pela saída dos boxes
18 Lance Stroll 1 9 14:18:18 23.724s
7 Jack Doohan 1 15 14:27:46 23.382s
63 George Russell 1 19 14:33:35 23.184s
81 Oscar Piastri 1 20 14:35:03 23.037s
16 Charles Leclerc 1 21 14:36:40 23.346s
1 Max Verstappen 1 21 14:36:32 24.397s
4 Lando Norris 1 21 14:36:33 23.222s
27 Nico Hülkenberg 1 22 14:38:44 23.515s
22 Yuki Tsunoda 1 23 14:40:13 24.181s
87 Oliver Bearman 1 23 14:40:07 24.834s
23 Alexander Albon 1 24 14:41:36 23.093s
10 Pierre Gasly 1 24 14:41:48 26.041s
14 Fernando Alonso 1 24 14:41:45 25.708s
6 Isack Hadjar 1 25 14:43:05 23.333s
44 Lewis Hamilton 1 30 14:50:48 22.937s
18 Lance Stroll 2 30 14:51:42 23.608s
5 Gabriel Bortoleto 1 31 14:52:58 23.419s
12 Andrea Kimi Antonelli 1 31 14:52:16 24.380s
31 Esteban Ocon 1 32 14:54:29 24.464s
55 Carlos Sainz 1 33 14:56:03 23.337s
30 Liam Lawson 1 33 14:56:01 23.662s
paragens
SG 10 20 30 40 L53
1
1
M20
H33
4
1
M20
H33
81
1
M19
H34
16
1
M20
H33
63
1
M18
H35
12
1
M30
H23
44
1
H29
M24
6
1
M24
H29
23
1
M23
H30
87
1
M22
H31·+1
14
1
M23·+1
H30·+1
22
1
M22
H31
10
1
M23
H30
55
1
M32
S21
7
1
S14
H39
27
1
M21
H32
30
1
M32
S21
31
1
H31·+1
M22
5
1
H30
M23
18
2
S8
H21·+1
M23
S Soft M Medium H Hard I Intermediate W Wet SC·VSC parada nos boxes punição cumprida nos boxes
Corrida · largura da barra = voltas com esse jogo, ·+N = montado usado com N voltas prévias · fonte OpenF1 (2023+)
Compostos indicados para este Grande Prémio
C1 Duro C2 Médio C3 Macio
A Pirelli indica três dos seus compostos secos para cada prova; quanto maior o número C, mais macio é o pneu. Documento da FIA ↗
Mais posições ganhas em pista
55
+10
P15→P14
23
+9
P9→P9
63
+8
P5→P5
87
+8
P10→P10
5
+8
P17→P19
16
+7
P4→P4
6
+7
P7→P8
14
+7
P12→P11
Mais posições perdidas
Alexander Albon −9 Liam Lawson −9 George Russell −8
Corrida · Soma das posições ganhas em pista volta a volta — excluem-se a volta de largada e as voltas de boxes do próprio piloto. Dados de voltas de corrida desde 1996.
PilotoTipoVoltaCumpridaAplicadaMotivo
55 Carlos Sainz Punição no grid ▼3 Car 55 unnecessarily impeded Car 44 in turn 1. (Drop of 3 grid positions for the next Corrida in which the driver participates.) Doc 38 ↗
▼3 Car 55 unnecessarily impeded Car 44 in turn 1. (Drop of 3 grid positions for the next Corrida in which the driver participates.) Doc 38 ↗
18 Lance Stroll Voltas deletadas TRACK LIMITS
TRACK LIMITS
44 Lewis Hamilton Voltas deletadas TRACK LIMITS (PIT)
TRACK LIMITS (PIT)
Volta = volta em que a punição foi aplicada · Cumprida = volta em que foi cumprida nos boxes (em branco: somada ao tempo de corrida)
Time, drive-through and stop-go penalties come from race control messages (OpenF1, 2023+). Grid penalties never appear there — the stewards publish them as documents after the session — so they are worked back from the starting grid against the a qualificação classification, which gives places actually lost rather than the figure written in the decision.
PilotoTipoVoltaCumpridaAplicadaMotivo
55 Carlos Sainz Fine €1,000 Pit Lane Speeding - 93.7 km/h (The competitor (Atlassian Williams Racing) is fined €1000) Doc 28 ↗
€1,000 Pit Lane Speeding - 93.7 km/h (The competitor (Atlassian Williams Racing) is fined €1000) Doc 28 ↗
1 Max Verstappen Black-and-white flag warning Car 1 overtook several cars in the Fast Lane whilst traversing the Working Lane to the Practice Start Area (Formal Warning for the Piloto Formal Warning for the Team.) Doc 31 ↗
Car 1 overtook several cars in the Fast Lane whilst traversing the Working Lane to the Practice Start Area (Formal Warning for the Piloto Formal Warning for the Team.) Doc 31 ↗
81 Oscar Piastri Black-and-white flag warning Car 81 overtook several cars in the Fast Lane whilst traversing the Working Lane to the Practice Start Area (Formal Warning for the Piloto Formal Warning for the Team.) Doc 30 ↗
Car 81 overtook several cars in the Fast Lane whilst traversing the Working Lane to the Practice Start Area (Formal Warning for the Piloto Formal Warning for the Team.) Doc 30 ↗
Volta = volta em que a punição foi aplicada · Cumprida = volta em que foi cumprida nos boxes (em branco: somada ao tempo de corrida)
Time, drive-through and stop-go penalties come from race control messages (OpenF1, 2023+). Grid penalties never appear there — the stewards publish them as documents after the session — so they are worked back from the starting grid against the a qualificação classification, which gives places actually lost rather than the figure written in the decision.
PilotoTipoVoltaCumpridaAplicadaMotivo
44 Lewis Hamilton Black-and-white flag warning Car 44 overtook several cars in the Fast Lane whilst traversing the Working Lane to the Practice Start Area. (Warning for the Piloto. Warning for the Team.) Doc 20 ↗
Car 44 overtook several cars in the Fast Lane whilst traversing the Working Lane to the Practice Start Area. (Warning for the Piloto. Warning for the Team.) Doc 20 ↗
18 Lance Stroll Black-and-white flag warning Car 18 overtook several cars in the Fast Lane whilst traversing the Working Lane to the Practice Start Area. (Warning for the Piloto. Warning for the Team.) Doc 19 ↗
Car 18 overtook several cars in the Fast Lane whilst traversing the Working Lane to the Practice Start Area. (Warning for the Piloto. Warning for the Team.) Doc 19 ↗
Volta = volta em que a punição foi aplicada · Cumprida = volta em que foi cumprida nos boxes (em branco: somada ao tempo de corrida)
Time, drive-through and stop-go penalties come from race control messages (OpenF1, 2023+). Grid penalties never appear there — the stewards publish them as documents after the session — so they are worked back from the starting grid against the a qualificação classification, which gives places actually lost rather than the figure written in the decision.
PilotoTipoVoltaCumpridaAplicadaMotivo
12 Andrea Kimi Antonelli Fine €100 Pit lane speeding – 80.9 km/h (The competitor (Mercedes-AMG PETRONAS F1 Team) is fined €100.) Doc 12 ↗
€100 Pit lane speeding – 80.9 km/h (The competitor (Mercedes-AMG PETRONAS F1 Team) is fined €100.) Doc 12 ↗
Volta = volta em que a punição foi aplicada · Cumprida = volta em que foi cumprida nos boxes (em branco: somada ao tempo de corrida)
Time, drive-through and stop-go penalties come from race control messages (OpenF1, 2023+). Grid penalties never appear there — the stewards publish them as documents after the session — so they are worked back from the starting grid against the a qualificação classification, which gives places actually lost rather than the figure written in the decision.
PilotoTipoVoltaCumpridaAplicadaMotivo
55 Carlos Sainz Fine €20,000 The driver was not in place for the National Anthem at the specified time of 1344hrs. (The Piloto Carlos Sainz is fined €20,000 of which €10,000 is suspended for a period of 12 months sub) Doc 49 ↗
€20,000 The driver was not in place for the National Anthem at the specified time of 1344hrs. (The Piloto Carlos Sainz is fined €20,000 of which €10,000 is suspended for a period of 12 months sub) Doc 49 ↗
Volta = volta em que a punição foi aplicada · Cumprida = volta em que foi cumprida nos boxes (em branco: somada ao tempo de corrida)
Time, drive-through and stop-go penalties come from race control messages (OpenF1, 2023+). Grid penalties never appear there — the stewards publish them as documents after the session — so they are worked back from the starting grid against the a qualificação classification, which gives places actually lost rather than the figure written in the decision.
DocTítuloAssuntoPublished(CET)
1 Event Notes - Pirelli Preview ↗ 2025-04-02 05:01
2025-04-02 05:01 CET
2 Post-Corrida Checks on Cars 16 and 44, Chinese GP ↗ 2025-04-03 01:56
2025-04-03 01:56 CET
3 Car Display Procedure ↗ 2025-04-03 10:03
2025-04-03 10:03 CET
4 Corrida Director's Event Notes ↗ 2025-04-03 11:41
2025-04-03 11:41 CET
5 Event Notes - Circuito Map, Pit Lane, Quarantine and Red Zone ↗ 2025-04-03 12:33
2025-04-03 12:33 CET
6 PU elements usados per driver up to now ↗ 2025-04-04 01:42
2025-04-04 01:42 CET
7 Self Scrutineering ↗ 2025-04-04 01:43
2025-04-04 01:43 CET
8 Curfew ↗ 2025-04-04 01:43
2025-04-04 01:43 CET
9 Car Presentation Submissions ↗ 2025-04-04 02:00
2025-04-04 02:00 CET
10 Entry List ↗ 2025-04-04 02:30
2025-04-04 02:30 CET
11 New PU elements for this Competition ↗ 2025-04-04 04:32
2025-04-04 04:32 CET
12 Infringement - Car 12 - Pit Lane Speeding ↗ 12 Andrea Kimi Antonelli 2025-04-04 05:56
12 Andrea Kimi Antonelli 2025-04-04 05:56 CET
13 P1 Classification ↗ 2025-04-04 05:50
2025-04-04 05:50 CET
14 P2 Classification ↗ 2025-04-04 09:25
2025-04-04 09:25 CET
15 Summons - Aston Martin - Alleged Failure to follow Corrida Director's Instructions ↗ 2025-04-04 10:20
2025-04-04 10:20 CET
16 Summons - Ferrari - Alleged Failure to follow Corrida Director's Instructions ↗ 2025-04-04 10:20
2025-04-04 10:20 CET
17 P1 and P2 Scrutineering ↗ 2025-04-04 10:32
2025-04-04 10:32 CET
18 Corrida Director's Note - SC2-SC1 Time ↗ 2025-04-04 10:32
2025-04-04 10:32 CET
19 Infringement - Car 18 - Failure to follow Corrida Director's instructions ↗ 18 Lance Stroll 2025-04-04 11:42
18 Lance Stroll 2025-04-04 11:42 CET
20 Infringement - Car 44 - Failure to follow Corrida Director's instructions ↗ 44 Lewis Hamilton 2025-04-04 11:42
44 Lewis Hamilton 2025-04-04 11:42 CET
21 Post-Classificação Procedure ↗ 2025-04-05 02:36
2025-04-05 02:36 CET
22 Corrida Director's Event Notes V2 ↗ 2025-04-05 03:52
2025-04-05 03:52 CET
23 Curfew ↗ 2025-04-05 04:49
2025-04-05 04:49 CET
24 Self-Scrutineering ↗ 2025-04-05 04:50
2025-04-05 04:50 CET
25 New PU elements for this Competition ↗ 2025-04-05 04:51
2025-04-05 04:51 CET
26 Summons - Car 81 - Alleged Failure to follow Corrida Director's Instructions ↗ 81 Oscar Piastri 2025-04-05 05:17
81 Oscar Piastri 2025-04-05 05:17 CET
27 Summons - Car 1 - Alleged Failure to follow Corrida Director's Instructions ↗ 1 Max Verstappen 2025-04-05 05:17
1 Max Verstappen 2025-04-05 05:17 CET
28 Infringement - Car 55 - Pit Lane Speeding ↗ 55 Carlos Sainz 2025-04-05 05:45
55 Carlos Sainz 2025-04-05 05:45 CET
29 P3 Classification ↗ 2025-04-05 05:45
2025-04-05 05:45 CET
30 Infringement - Car 81 - Failure to follow Corrida Director's instructions ↗ 81 Oscar Piastri 2025-04-05 06:57
81 Oscar Piastri 2025-04-05 06:57 CET
31 Infringement - Car 1 - Failure to follow Corrida Director's instructions ↗ 1 Max Verstappen 2025-04-05 06:58
1 Max Verstappen 2025-04-05 06:58 CET
32 Corrida Director's Event Notes V3 ↗ 2025-04-05 07:19
2025-04-05 07:19 CET
33 Summons - Car 55 - Alleged impeding of Car 44 ↗ 55 Carlos Sainz 2025-04-05 09:25
55 Carlos Sainz 2025-04-05 09:25 CET
34 Summons - Car 44 - Alleged impeding by Car 55 ↗ 44 Lewis Hamilton 2025-04-05 09:29
44 Lewis Hamilton 2025-04-05 09:29 CET
35 Provisional Classificação Classification ↗ 2025-04-05 09:29
2025-04-05 09:29 CET
36 Infringement - Classificação Deleted Volta Times ↗ 2025-04-05 09:40
2025-04-05 09:40 CET
37 Decision - Classificação SC2-SC1 Times ↗ 2025-04-05 09:41
2025-04-05 09:41 CET
38 Infringement - Car 55 - Impeding of Car 44 ↗ 55 Carlos Sainz 2025-04-05 10:47
55 Carlos Sainz 2025-04-05 10:47 CET
39 P3 and Classificação Scrutineering ↗ 2025-04-05 11:32
2025-04-05 11:32 CET
40 Final Classificação Classification ↗ 2025-04-05 11:36
2025-04-05 11:36 CET
41 Provisional Starting Grid ↗ 2025-04-05 11:41
2025-04-05 11:41 CET
42 Pre-Corrida Procedure ↗ 2025-04-06 04:41
2025-04-06 04:41 CET
43 Post-Corrida Procedure ↗ 2025-04-06 04:45
2025-04-06 04:45 CET
44 Parts and Parameters been replaced and or changed during Parc Fermé ↗ 2025-04-06 05:56
2025-04-06 05:56 CET
45 Final Starting Grid ↗ 2025-04-06 06:00
2025-04-06 06:00 CET
46 Summons - Car 55 - National Anthem Attendance ↗ 55 Carlos Sainz 2025-04-06 08:30
55 Carlos Sainz 2025-04-06 08:30 CET
47 Corrida Deleted Volta Times ↗ 2025-04-06 08:38
2025-04-06 08:38 CET
48 Provisional Corrida Classification ↗ 2025-04-06 08:45
2025-04-06 08:45 CET
49 Infringement - Car 55 - Late attendance of National Anthem ↗ 55 Carlos Sainz 2025-04-06 10:26
55 Carlos Sainz 2025-04-06 10:26 CET
50 Corrida Scrutineering ↗ 2025-04-06 11:12
2025-04-06 11:12 CET
51 Final Corrida Classification ↗ 2025-04-06 11:15
2025-04-06 11:15 CET
52 Campeonato Pontos ↗ 2025-04-06 11:20
2025-04-06 11:20 CET
FIA official decisions and documents (fia.com) · PDF original PDF links
Record Basis · Calculation basis
Corrida order is the final classification(post-race penalties applied) · a qualificação session data 2003+ · lap times 1996+ · pit stops 2012+ (pit-lane transit, not stationary time) · Abandono = Finished(Finished·+N Voltas) non-Finished statuses
Fontes de dados: Jolpica-F1 (Ergast compatible API) · weather·Direção de prova OpenF1 (2023+) · Last fetched: 2026-09-05 20:50